sensor_id;sensor_type;location;lat;lon;timestamp;P1;durP1;ratioP1;P2;durP2;ratioP2
13566;SDS011;6855;48.112;11.298;2022-11-15T00:00:08;5.20;;;3.73;;
13566;SDS011;6855;48.112;11.298;2022-11-15T00:02:35;5.50;;;3.40;;
13566;SDS011;6855;48.112;11.298;2022-11-15T00:05:03;4.73;;;3.20;;
13566;SDS011;6855;48.112;11.298;2022-11-15T00:07:30;8.93;;;3.53;;
13566;SDS011;6855;48.112;11.298;2022-11-15T00:09:57;3.97;;;3.00;;
13566;SDS011;6855;48.112;11.298;2022-11-15T00:12:26;3.93;;;2.87;;
13566;SDS011;6855;48.112;11.298;2022-11-15T00:14:53;4.03;;;2.70;;
13566;SDS011;6855;48.112;11.298;2022-11-15T00:17:20;4.53;;;2.80;;
13566;SDS011;6855;48.112;11.298;2022-11-15T00:19:47;4.63;;;2.60;;
13566;SDS011;6855;48.112;11.298;2022-11-15T00:22:15;3.27;;;2.40;;
13566;SDS011;6855;48.112;11.298;2022-11-15T00:24:42;4.30;;;2.40;;
13566;SDS011;6855;48.112;11.298;2022-11-15T00:27:09;2.90;;;2.60;;
13566;SDS011;6855;48.112;11.298;2022-11-15T00:29:38;2.63;;;2.10;;
13566;SDS011;6855;48.112;11.298;2022-11-15T00:32:08;3.30;;;2.30;;
13566;SDS011;6855;48.112;11.298;2022-11-15T00:34:35;3.40;;;2.10;;
13566;SDS011;6855;48.112;11.298;2022-11-15T00:37:02;5.93;;;2.37;;
13566;SDS011;6855;48.112;11.298;2022-11-15T00:39:29;2.57;;;1.97;;
13566;SDS011;6855;48.112;11.298;2022-11-15T00:41:56;2.67;;;1.63;;
13566;SDS011;6855;48.112;11.298;2022-11-15T00:44:24;3.10;;;2.10;;
13566;SDS011;6855;48.112;11.298;2022-11-15T00:46:52;2.90;;;2.20;;
13566;SDS011;6855;48.112;11.298;2022-11-15T00:49:19;4.20;;;2.10;;
13566;SDS011;6855;48.112;11.298;2022-11-15T00:51:46;2.90;;;2.40;;
13566;SDS011;6855;48.112;11.298;2022-11-15T00:54:14;2.50;;;1.90;;
13566;SDS011;6855;48.112;11.298;2022-11-15T00:56:41;3.80;;;2.50;;
13566;SDS011;6855;48.112;11.298;2022-11-15T00:59:08;3.50;;;2.30;;
13566;SDS011;6855;48.112;11.298;2022-11-15T01:01:35;2.27;;;1.83;;
13566;SDS011;6855;48.112;11.298;2022-11-15T01:04:04;5.47;;;2.40;;
13566;SDS011;6855;48.112;11.298;2022-11-15T01:06:31;11.30;;;2.30;;
13566;SDS011;6855;48.112;11.298;2022-11-15T01:08:58;9.87;;;2.13;;
13566;SDS011;6855;48.112;11.298;2022-11-15T01:11:25;3.40;;;2.77;;
13566;SDS011;6855;48.112;11.298;2022-11-15T01:13:52;3.20;;;2.27;;
13566;SDS011;6855;48.112;11.298;2022-11-15T01:16:21;2.97;;;2.17;;
13566;SDS011;6855;48.112;11.298;2022-11-15T01:18:48;3.30;;;2.40;;
13566;SDS011;6855;48.112;11.298;2022-11-15T01:21:17;3.20;;;2.50;;
13566;SDS011;6855;48.112;11.298;2022-11-15T01:23:45;4.10;;;2.47;;
13566;SDS011;6855;48.112;11.298;2022-11-15T01:26:13;2.50;;;1.93;;
13566;SDS011;6855;48.112;11.298;2022-11-15T01:28:41;2.30;;;2.10;;
13566;SDS011;6855;48.112;11.298;2022-11-15T01:31:10;3.40;;;2.30;;
13566;SDS011;6855;48.112;11.298;2022-11-15T01:33:38;2.17;;;1.83;;
13566;SDS011;6855;48.112;11.298;2022-11-15T01:36:05;4.10;;;2.20;;
13566;SDS011;6855;48.112;11.298;2022-11-15T01:38:34;4.07;;;2.37;;
13566;SDS011;6855;48.112;11.298;2022-11-15T01:41:01;2.60;;;2.07;;
13566;SDS011;6855;48.112;11.298;2022-11-15T01:43:29;3.60;;;2.40;;
13566;SDS011;6855;48.112;11.298;2022-11-15T01:45:58;2.87;;;2.30;;
13566;SDS011;6855;48.112;11.298;2022-11-15T01:48:28;3.27;;;2.03;;
13566;SDS011;6855;48.112;11.298;2022-11-15T01:50:57;3.10;;;2.03;;
13566;SDS011;6855;48.112;11.298;2022-11-15T01:53:25;2.70;;;2.50;;
13566;SDS011;6855;48.112;11.298;2022-11-15T01:55:54;6.63;;;1.77;;
13566;SDS011;6855;48.112;11.298;2022-11-15T01:58:21;2.60;;;2.00;;
13566;SDS011;6855;48.112;11.298;2022-11-15T02:00:48;3.53;;;2.47;;
13566;SDS011;6855;48.112;11.298;2022-11-15T02:03:16;4.50;;;2.60;;
13566;SDS011;6855;48.112;11.298;2022-11-15T02:05:43;3.97;;;2.87;;
13566;SDS011;6855;48.112;11.298;2022-11-15T02:08:10;3.23;;;2.03;;
13566;SDS011;6855;48.112;11.298;2022-11-15T02:10:45;3.00;;;2.33;;
13566;SDS011;6855;48.112;11.298;2022-11-15T02:13:14;4.23;;;2.63;;
13566;SDS011;6855;48.112;11.298;2022-11-15T02:15:43;3.57;;;2.13;;
13566;SDS011;6855;48.112;11.298;2022-11-15T02:18:14;2.73;;;2.20;;
13566;SDS011;6855;48.112;11.298;2022-11-15T02:20:47;3.67;;;2.30;;
13566;SDS011;6855;48.112;11.298;2022-11-15T02:26:16;4.73;;;2.80;;
13566;SDS011;6855;48.112;11.298;2022-11-15T02:28:52;3.10;;;2.60;;
13566;SDS011;6855;48.112;11.298;2022-11-15T02:31:27;2.63;;;2.03;;
13566;SDS011;6855;48.112;11.298;2022-11-15T02:33:57;5.20;;;2.90;;
13566;SDS011;6855;48.112;11.298;2022-11-15T02:36:30;5.33;;;2.90;;
13566;SDS011;6855;48.112;11.298;2022-11-15T02:39:01;3.47;;;2.50;;
13566;SDS011;6855;48.112;11.298;2022-11-15T02:41:30;6.73;;;2.73;;
13566;SDS011;6855;48.112;11.298;2022-11-15T02:43:59;2.83;;;2.20;;
13566;SDS011;6855;48.112;11.298;2022-11-15T02:46:30;4.13;;;2.10;;
13566;SDS011;6855;48.112;11.298;2022-11-15T02:49:16;3.90;;;2.80;;
13566;SDS011;6855;48.112;11.298;2022-11-15T02:51:44;3.90;;;2.43;;
13566;SDS011;6855;48.112;11.298;2022-11-15T02:54:12;2.73;;;1.97;;
13566;SDS011;6855;48.112;11.298;2022-11-15T02:56:40;4.43;;;2.67;;
13566;SDS011;6855;48.112;11.298;2022-11-15T02:59:19;2.53;;;2.23;;
13566;SDS011;6855;48.112;11.298;2022-11-15T03:01:54;3.20;;;1.90;;
13566;SDS011;6855;48.112;11.298;2022-11-15T03:04:28;4.53;;;2.37;;
13566;SDS011;6855;48.112;11.298;2022-11-15T03:06:58;3.27;;;2.10;;
13566;SDS011;6855;48.112;11.298;2022-11-15T03:09:28;2.83;;;2.30;;
13566;SDS011;6855;48.112;11.298;2022-11-15T03:11:59;3.20;;;2.47;;
13566;SDS011;6855;48.112;11.298;2022-11-15T03:14:29;4.37;;;2.30;;
13566;SDS011;6855;48.112;11.298;2022-11-15T03:16:59;2.40;;;2.03;;
13566;SDS011;6855;48.112;11.298;2022-11-15T03:19:30;3.10;;;2.30;;
13566;SDS011;6855;48.112;11.298;2022-11-15T03:21:59;4.40;;;2.40;;
13566;SDS011;6855;48.112;11.298;2022-11-15T03:24:28;4.30;;;2.20;;
13566;SDS011;6855;48.112;11.298;2022-11-15T03:26:56;3.00;;;2.03;;
13566;SDS011;6855;48.112;11.298;2022-11-15T03:29:24;2.20;;;2.00;;
13566;SDS011;6855;48.112;11.298;2022-11-15T03:31:55;3.07;;;1.83;;
13566;SDS011;6855;48.112;11.298;2022-11-15T03:34:27;3.00;;;1.77;;
13566;SDS011;6855;48.112;11.298;2022-11-15T03:36:55;2.63;;;2.00;;
13566;SDS011;6855;48.112;11.298;2022-11-15T03:39:22;2.80;;;2.30;;
13566;SDS011;6855;48.112;11.298;2022-11-15T03:41:51;4.00;;;2.70;;
13566;SDS011;6855;48.112;11.298;2022-11-15T03:44:24;4.37;;;2.53;;
13566;SDS011;6855;48.112;11.298;2022-11-15T03:46:57;3.40;;;2.13;;
13566;SDS011;6855;48.112;11.298;2022-11-15T03:49:29;4.03;;;2.80;;
13566;SDS011;6855;48.112;11.298;2022-11-15T03:51:57;3.37;;;2.20;;
13566;SDS011;6855;48.112;11.298;2022-11-15T03:54:25;2.57;;;2.10;;
13566;SDS011;6855;48.112;11.298;2022-11-15T03:56:52;3.13;;;2.20;;
13566;SDS011;6855;48.112;11.298;2022-11-15T03:59:20;2.63;;;1.67;;
13566;SDS011;6855;48.112;11.298;2022-11-15T04:01:47;2.30;;;2.10;;
13566;SDS011;6855;48.112;11.298;2022-11-15T04:04:14;3.57;;;2.20;;
13566;SDS011;6855;48.112;11.298;2022-11-15T04:06:43;3.57;;;2.40;;
13566;SDS011;6855;48.112;11.298;2022-11-15T04:09:10;2.80;;;2.27;;
13566;SDS011;6855;48.112;11.298;2022-11-15T04:11:37;4.33;;;2.67;;
13566;SDS011;6855;48.112;11.298;2022-11-15T04:14:04;3.00;;;2.20;;
13566;SDS011;6855;48.112;11.298;2022-11-15T04:16:31;3.00;;;2.03;;
13566;SDS011;6855;48.112;11.298;2022-11-15T04:18:58;3.00;;;2.33;;
13566;SDS011;6855;48.112;11.298;2022-11-15T04:24:17;2.63;;;2.00;;
13566;SDS011;6855;48.112;11.298;2022-11-15T04:26:44;3.00;;;2.27;;
13566;SDS011;6855;48.112;11.298;2022-11-15T04:29:11;9.83;;;2.20;;
13566;SDS011;6855;48.112;11.298;2022-11-15T04:31:55;4.03;;;2.07;;
13566;SDS011;6855;48.112;11.298;2022-11-15T04:34:22;3.30;;;2.00;;
13566;SDS011;6855;48.112;11.298;2022-11-15T04:36:49;2.50;;;2.20;;
13566;SDS011;6855;48.112;11.298;2022-11-15T04:39:36;2.47;;;1.97;;
13566;SDS011;6855;48.112;11.298;2022-11-15T04:42:03;2.47;;;1.73;;
13566;SDS011;6855;48.112;11.298;2022-11-15T04:44:30;2.20;;;1.60;;
13566;SDS011;6855;48.112;11.298;2022-11-15T04:46:57;2.20;;;1.93;;
13566;SDS011;6855;48.112;11.298;2022-11-15T04:49:25;3.20;;;2.20;;
13566;SDS011;6855;48.112;11.298;2022-11-15T04:51:52;2.63;;;2.07;;
13566;SDS011;6855;48.112;11.298;2022-11-15T04:54:19;2.70;;;2.33;;
13566;SDS011;6855;48.112;11.298;2022-11-15T04:56:47;5.40;;;2.53;;
13566;SDS011;6855;48.112;11.298;2022-11-15T04:59:15;6.23;;;2.47;;
13566;SDS011;6855;48.112;11.298;2022-11-15T05:01:42;3.60;;;2.40;;
13566;SDS011;6855;48.112;11.298;2022-11-15T05:04:09;2.53;;;2.27;;
13566;SDS011;6855;48.112;11.298;2022-11-15T05:06:44;4.00;;;2.47;;
13566;SDS011;6855;48.112;11.298;2022-11-15T05:09:12;2.70;;;1.90;;
13566;SDS011;6855;48.112;11.298;2022-11-15T05:11:39;2.63;;;2.30;;
13566;SDS011;6855;48.112;11.298;2022-11-15T05:14:08;4.93;;;2.53;;
13566;SDS011;6855;48.112;11.298;2022-11-15T05:16:35;3.10;;;2.40;;
13566;SDS011;6855;48.112;11.298;2022-11-15T05:19:02;3.87;;;3.07;;
13566;SDS011;6855;48.112;11.298;2022-11-15T05:21:30;3.57;;;2.47;;
13566;SDS011;6855;48.112;11.298;2022-11-15T05:23:57;4.73;;;3.33;;
13566;SDS011;6855;48.112;11.298;2022-11-15T05:26:24;4.93;;;3.00;;
13566;SDS011;6855;48.112;11.298;2022-11-15T05:28:52;3.13;;;2.60;;
13566;SDS011;6855;48.112;11.298;2022-11-15T05:31:21;6.13;;;3.40;;
13566;SDS011;6855;48.112;11.298;2022-11-15T05:33:49;4.67;;;2.90;;
13566;SDS011;6855;48.112;11.298;2022-11-15T05:36:17;4.83;;;3.10;;
13566;SDS011;6855;48.112;11.298;2022-11-15T05:38:46;6.30;;;3.60;;
13566;SDS011;6855;48.112;11.298;2022-11-15T05:41:14;3.00;;;2.50;;
13566;SDS011;6855;48.112;11.298;2022-11-15T05:43:42;2.90;;;2.53;;
13566;SDS011;6855;48.112;11.298;2022-11-15T05:46:10;3.47;;;2.43;;
13566;SDS011;6855;48.112;11.298;2022-11-15T05:48:40;4.33;;;3.10;;
13566;SDS011;6855;48.112;11.298;2022-11-15T05:51:08;7.50;;;2.73;;
13566;SDS011;6855;48.112;11.298;2022-11-15T05:53:35;4.70;;;2.50;;
13566;SDS011;6855;48.112;11.298;2022-11-15T05:56:03;4.53;;;2.20;;
13566;SDS011;6855;48.112;11.298;2022-11-15T05:58:31;4.03;;;2.77;;
13566;SDS011;6855;48.112;11.298;2022-11-15T06:00:59;5.33;;;3.20;;
13566;SDS011;6855;48.112;11.298;2022-11-15T06:03:27;4.53;;;2.83;;
13566;SDS011;6855;48.112;11.298;2022-11-15T06:05:55;4.07;;;2.90;;
13566;SDS011;6855;48.112;11.298;2022-11-15T06:08:22;8.90;;;5.30;;
13566;SDS011;6855;48.112;11.298;2022-11-15T06:10:50;6.73;;;4.73;;
13566;SDS011;6855;48.112;11.298;2022-11-15T06:13:17;6.17;;;4.10;;
13566;SDS011;6855;48.112;11.298;2022-11-15T06:15:44;5.70;;;3.37;;
13566;SDS011;6855;48.112;11.298;2022-11-15T06:18:11;4.13;;;2.90;;
13566;SDS011;6855;48.112;11.298;2022-11-15T06:20:38;4.40;;;3.47;;
13566;SDS011;6855;48.112;11.298;2022-11-15T06:23:07;7.97;;;3.50;;
13566;SDS011;6855;48.112;11.298;2022-11-15T06:25:34;12.10;;;3.57;;
13566;SDS011;6855;48.112;11.298;2022-11-15T06:28:01;4.90;;;3.47;;
13566;SDS011;6855;48.112;11.298;2022-11-15T06:30:28;4.83;;;3.33;;
13566;SDS011;6855;48.112;11.298;2022-11-15T06:32:59;4.03;;;3.03;;
13566;SDS011;6855;48.112;11.298;2022-11-15T06:35:27;5.93;;;3.20;;
13566;SDS011;6855;48.112;11.298;2022-11-15T06:37:54;14.30;;;3.73;;
13566;SDS011;6855;48.112;11.298;2022-11-15T06:40:22;5.40;;;2.90;;
13566;SDS011;6855;48.112;11.298;2022-11-15T06:42:50;5.20;;;3.13;;
13566;SDS011;6855;48.112;11.298;2022-11-15T06:45:17;6.83;;;3.03;;
13566;SDS011;6855;48.112;11.298;2022-11-15T06:47:44;5.27;;;3.23;;
13566;SDS011;6855;48.112;11.298;2022-11-15T06:50:12;10.97;;;3.60;;
13566;SDS011;6855;48.112;11.298;2022-11-15T06:52:39;5.17;;;3.63;;
13566;SDS011;6855;48.112;11.298;2022-11-15T06:55:07;8.57;;;4.30;;
13566;SDS011;6855;48.112;11.298;2022-11-15T06:57:35;5.90;;;3.77;;
13566;SDS011;6855;48.112;11.298;2022-11-15T07:00:03;6.00;;;3.67;;
13566;SDS011;6855;48.112;11.298;2022-11-15T07:02:30;7.70;;;4.23;;
13566;SDS011;6855;48.112;11.298;2022-11-15T07:04:58;6.37;;;3.30;;
13566;SDS011;6855;48.112;11.298;2022-11-15T07:07:25;8.90;;;4.30;;
13566;SDS011;6855;48.112;11.298;2022-11-15T07:09:52;5.70;;;3.80;;
13566;SDS011;6855;48.112;11.298;2022-11-15T07:12:19;12.40;;;6.30;;
13566;SDS011;6855;48.112;11.298;2022-11-15T07:14:47;21.50;;;8.27;;
13566;SDS011;6855;48.112;11.298;2022-11-15T07:17:15;24.33;;;7.23;;
13566;SDS011;6855;48.112;11.298;2022-11-15T07:19:42;14.17;;;6.90;;
13566;SDS011;6855;48.112;11.298;2022-11-15T07:22:09;12.57;;;6.53;;
13566;SDS011;6855;48.112;11.298;2022-11-15T07:24:36;17.57;;;6.23;;
13566;SDS011;6855;48.112;11.298;2022-11-15T07:27:03;12.57;;;6.47;;
13566;SDS011;6855;48.112;11.298;2022-11-15T07:29:30;17.47;;;6.83;;
13566;SDS011;6855;48.112;11.298;2022-11-15T07:31:59;14.13;;;6.70;;
13566;SDS011;6855;48.112;11.298;2022-11-15T07:34:26;13.00;;;5.80;;
13566;SDS011;6855;48.112;11.298;2022-11-15T07:36:53;12.63;;;5.93;;
13566;SDS011;6855;48.112;11.298;2022-11-15T07:39:20;29.50;;;7.47;;
13566;SDS011;6855;48.112;11.298;2022-11-15T07:41:48;11.87;;;5.93;;
13566;SDS011;6855;48.112;11.298;2022-11-15T07:44:35;9.43;;;5.47;;
13566;SDS011;6855;48.112;11.298;2022-11-15T07:47:03;12.57;;;6.20;;
13566;SDS011;6855;48.112;11.298;2022-11-15T07:49:31;13.33;;;5.23;;
13566;SDS011;6855;48.112;11.298;2022-11-15T07:51:58;9.20;;;4.80;;
13566;SDS011;6855;48.112;11.298;2022-11-15T07:54:25;17.03;;;5.40;;
13566;SDS011;6855;48.112;11.298;2022-11-15T07:56:52;14.47;;;7.13;;
13566;SDS011;6855;48.112;11.298;2022-11-15T07:59:19;20.57;;;7.40;;
13566;SDS011;6855;48.112;11.298;2022-11-15T08:01:46;15.77;;;8.17;;
13566;SDS011;6855;48.112;11.298;2022-11-15T08:04:15;18.23;;;8.97;;
13566;SDS011;6855;48.112;11.298;2022-11-15T08:06:42;16.20;;;8.40;;
13566;SDS011;6855;48.112;11.298;2022-11-15T08:09:09;17.60;;;6.80;;
13566;SDS011;6855;48.112;11.298;2022-11-15T08:11:37;18.10;;;7.23;;
13566;SDS011;6855;48.112;11.298;2022-11-15T08:14:04;14.53;;;7.30;;
13566;SDS011;6855;48.112;11.298;2022-11-15T08:16:31;17.67;;;6.93;;
13566;SDS011;6855;48.112;11.298;2022-11-15T08:18:58;7.77;;;5.50;;
13566;SDS011;6855;48.112;11.298;2022-11-15T08:21:27;10.50;;;6.30;;
13566;SDS011;6855;48.112;11.298;2022-11-15T08:23:54;9.53;;;5.50;;
13566;SDS011;6855;48.112;11.298;2022-11-15T08:26:21;21.00;;;6.20;;
13566;SDS011;6855;48.112;11.298;2022-11-15T08:28:49;20.00;;;5.27;;
13566;SDS011;6855;48.112;11.298;2022-11-15T08:31:17;16.40;;;4.40;;
13566;SDS011;6855;48.112;11.298;2022-11-15T08:33:45;9.43;;;4.10;;
13566;SDS011;6855;48.112;11.298;2022-11-15T08:36:12;16.63;;;4.30;;
13566;SDS011;6855;48.112;11.298;2022-11-15T08:38:42;13.40;;;5.80;;
13566;SDS011;6855;48.112;11.298;2022-11-15T08:41:10;6.73;;;4.10;;
13566;SDS011;6855;48.112;11.298;2022-11-15T08:43:38;15.43;;;5.00;;
13566;SDS011;6855;48.112;11.298;2022-11-15T08:46:05;16.33;;;5.47;;
13566;SDS011;6855;48.112;11.298;2022-11-15T08:48:32;17.63;;;5.37;;
13566;SDS011;6855;48.112;11.298;2022-11-15T08:50:59;5.07;;;3.90;;
13566;SDS011;6855;48.112;11.298;2022-11-15T08:53:26;9.40;;;4.93;;
13566;SDS011;6855;48.112;11.298;2022-11-15T08:55:55;9.73;;;3.90;;
13566;SDS011;6855;48.112;11.298;2022-11-15T08:58:22;7.43;;;4.03;;
13566;SDS011;6855;48.112;11.298;2022-11-15T09:00:49;11.07;;;3.17;;
13566;SDS011;6855;48.112;11.298;2022-11-15T09:03:16;13.13;;;3.23;;
13566;SDS011;6855;48.112;11.298;2022-11-15T09:05:43;13.77;;;3.00;;
13566;SDS011;6855;48.112;11.298;2022-11-15T09:08:11;9.57;;;4.10;;
13566;SDS011;6855;48.112;11.298;2022-11-15T09:10:39;8.37;;;4.10;;
13566;SDS011;6855;48.112;11.298;2022-11-15T09:13:07;5.10;;;3.80;;
13566;SDS011;6855;48.112;11.298;2022-11-15T09:15:34;7.93;;;4.00;;
13566;SDS011;6855;48.112;11.298;2022-11-15T09:18:02;9.63;;;3.70;;
13566;SDS011;6855;48.112;11.298;2022-11-15T09:20:29;4.93;;;3.87;;
13566;SDS011;6855;48.112;11.298;2022-11-15T09:22:58;6.93;;;2.87;;
13566;SDS011;6855;48.112;11.298;2022-11-15T09:25:25;5.60;;;3.00;;
13566;SDS011;6855;48.112;11.298;2022-11-15T09:27:53;4.70;;;2.67;;
13566;SDS011;6855;48.112;11.298;2022-11-15T09:30:21;3.00;;;2.77;;
13566;SDS011;6855;48.112;11.298;2022-11-15T09:32:48;4.77;;;2.60;;
13566;SDS011;6855;48.112;11.298;2022-11-15T09:35:16;5.70;;;2.70;;
13566;SDS011;6855;48.112;11.298;2022-11-15T09:37:43;3.07;;;2.77;;
13566;SDS011;6855;48.112;11.298;2022-11-15T09:40:11;2.90;;;2.40;;
13566;SDS011;6855;48.112;11.298;2022-11-15T09:42:45;4.37;;;2.70;;
13566;SDS011;6855;48.112;11.298;2022-11-15T09:45:16;3.37;;;3.07;;
13566;SDS011;6855;48.112;11.298;2022-11-15T09:50:36;5.03;;;4.20;;
13566;SDS011;6855;48.112;11.298;2022-11-15T09:53:08;6.17;;;3.50;;
13566;SDS011;6855;48.112;11.298;2022-11-15T09:55:38;5.97;;;3.63;;
13566;SDS011;6855;48.112;11.298;2022-11-15T09:58:10;5.60;;;3.07;;
13566;SDS011;6855;48.112;11.298;2022-11-15T10:00:44;4.30;;;2.90;;
13566;SDS011;6855;48.112;11.298;2022-11-15T10:03:14;3.83;;;2.73;;
13566;SDS011;6855;48.112;11.298;2022-11-15T10:05:44;5.20;;;3.00;;
13566;SDS011;6855;48.112;11.298;2022-11-15T10:08:16;7.47;;;2.90;;
13566;SDS011;6855;48.112;11.298;2022-11-15T10:10:46;5.40;;;3.00;;
13566;SDS011;6855;48.112;11.298;2022-11-15T10:13:15;4.47;;;3.17;;
13566;SDS011;6855;48.112;11.298;2022-11-15T10:15:43;11.97;;;3.43;;
13566;SDS011;6855;48.112;11.298;2022-11-15T10:18:14;4.00;;;3.30;;
13566;SDS011;6855;48.112;11.298;2022-11-15T10:20:48;7.30;;;3.30;;
13566;SDS011;6855;48.112;11.298;2022-11-15T10:23:16;6.30;;;3.30;;
13566;SDS011;6855;48.112;11.298;2022-11-15T10:25:44;3.10;;;2.40;;
13566;SDS011;6855;48.112;11.298;2022-11-15T10:28:13;3.20;;;2.70;;
13566;SDS011;6855;48.112;11.298;2022-11-15T10:30:41;5.50;;;2.67;;
13566;SDS011;6855;48.112;11.298;2022-11-15T10:33:14;8.10;;;2.53;;
13566;SDS011;6855;48.112;11.298;2022-11-15T10:35:44;4.30;;;2.53;;
13566;SDS011;6855;48.112;11.298;2022-11-15T10:38:12;4.63;;;2.37;;
13566;SDS011;6855;48.112;11.298;2022-11-15T10:40:40;2.80;;;2.20;;
13566;SDS011;6855;48.112;11.298;2022-11-15T10:43:13;3.40;;;2.00;;
13566;SDS011;6855;48.112;11.298;2022-11-15T10:45:41;4.03;;;2.27;;
13566;SDS011;6855;48.112;11.298;2022-11-15T10:48:21;2.30;;;2.10;;
13566;SDS011;6855;48.112;11.298;2022-11-15T10:50:50;3.23;;;2.00;;
13566;SDS011;6855;48.112;11.298;2022-11-15T10:53:20;2.70;;;2.20;;
13566;SDS011;6855;48.112;11.298;2022-11-15T10:55:49;3.73;;;1.60;;
13566;SDS011;6855;48.112;11.298;2022-11-15T10:58:20;1.50;;;1.40;;
13566;SDS011;6855;48.112;11.298;2022-11-15T11:00:48;5.80;;;2.07;;
13566;SDS011;6855;48.112;11.298;2022-11-15T11:03:27;1.90;;;1.80;;
13566;SDS011;6855;48.112;11.298;2022-11-15T11:06:05;3.50;;;1.83;;
13566;SDS011;6855;48.112;11.298;2022-11-15T11:08:34;5.20;;;1.70;;
13566;SDS011;6855;48.112;11.298;2022-11-15T11:11:02;2.40;;;1.70;;
13566;SDS011;6855;48.112;11.298;2022-11-15T11:13:29;2.90;;;2.37;;
13566;SDS011;6855;48.112;11.298;2022-11-15T11:15:59;4.33;;;2.13;;
13566;SDS011;6855;48.112;11.298;2022-11-15T11:18:31;3.77;;;2.10;;
13566;SDS011;6855;48.112;11.298;2022-11-15T11:21:01;5.80;;;2.30;;
13566;SDS011;6855;48.112;11.298;2022-11-15T11:23:37;5.93;;;2.13;;
13566;SDS011;6855;48.112;11.298;2022-11-15T11:26:10;3.03;;;2.10;;
13566;SDS011;6855;48.112;11.298;2022-11-15T11:28:41;7.60;;;2.50;;
13566;SDS011;6855;48.112;11.298;2022-11-15T11:31:15;2.37;;;1.97;;
13566;SDS011;6855;48.112;11.298;2022-11-15T11:33:47;13.87;;;2.40;;
13566;SDS011;6855;48.112;11.298;2022-11-15T11:36:19;6.17;;;3.17;;
13566;SDS011;6855;48.112;11.298;2022-11-15T11:38:51;5.83;;;3.27;;
13566;SDS011;6855;48.112;11.298;2022-11-15T11:41:24;4.97;;;3.33;;
13566;SDS011;6855;48.112;11.298;2022-11-15T11:43:57;7.80;;;3.07;;
13566;SDS011;6855;48.112;11.298;2022-11-15T11:46:38;4.53;;;3.13;;
13566;SDS011;6855;48.112;11.298;2022-11-15T11:49:12;5.83;;;3.00;;
13566;SDS011;6855;48.112;11.298;2022-11-15T11:51:42;6.83;;;2.73;;
13566;SDS011;6855;48.112;11.298;2022-11-15T11:54:13;8.40;;;3.43;;
13566;SDS011;6855;48.112;11.298;2022-11-15T11:56:43;3.53;;;2.63;;
13566;SDS011;6855;48.112;11.298;2022-11-15T11:59:12;8.67;;;3.20;;
13566;SDS011;6855;48.112;11.298;2022-11-15T12:01:43;4.87;;;2.83;;
13566;SDS011;6855;48.112;11.298;2022-11-15T12:04:19;6.93;;;3.47;;
13566;SDS011;6855;48.112;11.298;2022-11-15T12:06:49;8.33;;;3.37;;
13566;SDS011;6855;48.112;11.298;2022-11-15T12:09:19;9.50;;;3.70;;
13566;SDS011;6855;48.112;11.298;2022-11-15T12:11:49;8.27;;;3.03;;
13566;SDS011;6855;48.112;11.298;2022-11-15T12:14:21;8.40;;;3.50;;
13566;SDS011;6855;48.112;11.298;2022-11-15T12:16:50;7.37;;;4.37;;
13566;SDS011;6855;48.112;11.298;2022-11-15T12:19:17;8.13;;;4.37;;
13566;SDS011;6855;48.112;11.298;2022-11-15T12:21:46;5.70;;;3.67;;
13566;SDS011;6855;48.112;11.298;2022-11-15T12:24:17;6.80;;;3.60;;
13566;SDS011;6855;48.112;11.298;2022-11-15T12:26:47;4.13;;;2.87;;
13566;SDS011;6855;48.112;11.298;2022-11-15T12:29:16;4.57;;;2.67;;
13566;SDS011;6855;48.112;11.298;2022-11-15T12:31:47;3.80;;;2.60;;
13566;SDS011;6855;48.112;11.298;2022-11-15T12:34:28;3.03;;;1.57;;
13566;SDS011;6855;48.112;11.298;2022-11-15T12:36:56;3.97;;;1.70;;
13566;SDS011;6855;48.112;11.298;2022-11-15T12:44:59;1.40;;;1.30;;
13566;SDS011;6855;48.112;11.298;2022-11-15T12:47:26;4.20;;;1.30;;
13566;SDS011;6855;48.112;11.298;2022-11-15T12:49:53;2.00;;;1.43;;
13566;SDS011;6855;48.112;11.298;2022-11-15T12:52:20;4.97;;;1.50;;
13566;SDS011;6855;48.112;11.298;2022-11-15T12:54:52;1.93;;;1.23;;
13566;SDS011;6855;48.112;11.298;2022-11-15T12:57:30;1.20;;;1.10;;
13566;SDS011;6855;48.112;11.298;2022-11-15T13:00:00;1.30;;;1.20;;
13566;SDS011;6855;48.112;11.298;2022-11-15T13:02:29;1.30;;;1.20;;
13566;SDS011;6855;48.112;11.298;2022-11-15T13:07:55;1.20;;;1.10;;
13566;SDS011;6855;48.112;11.298;2022-11-15T13:10:30;1.40;;;1.30;;
13566;SDS011;6855;48.112;11.298;2022-11-15T13:12:57;5.80;;;1.70;;
13566;SDS011;6855;48.112;11.298;2022-11-15T13:15:37;3.20;;;2.50;;
13566;SDS011;6855;48.112;11.298;2022-11-15T13:20:50;6.10;;;2.00;;
13566;SDS011;6855;48.112;11.298;2022-11-15T13:23:17;2.63;;;1.90;;
13566;SDS011;6855;48.112;11.298;2022-11-15T13:25:56;1.43;;;1.33;;
13566;SDS011;6855;48.112;11.298;2022-11-15T13:28:28;1.70;;;1.60;;
13566;SDS011;6855;48.112;11.298;2022-11-15T13:30:58;1.50;;;1.40;;
13566;SDS011;6855;48.112;11.298;2022-11-15T13:33:28;2.30;;;1.60;;
13566;SDS011;6855;48.112;11.298;2022-11-15T13:35:57;1.53;;;1.43;;
13566;SDS011;6855;48.112;11.298;2022-11-15T13:38:26;1.20;;;1.10;;
13566;SDS011;6855;48.112;11.298;2022-11-15T13:40:53;1.93;;;1.33;;
13566;SDS011;6855;48.112;11.298;2022-11-15T13:43:25;11.83;;;3.20;;
13566;SDS011;6855;48.112;11.298;2022-11-15T13:46:04;2.90;;;1.67;;
13566;SDS011;6855;48.112;11.298;2022-11-15T13:48:32;1.70;;;1.60;;
13566;SDS011;6855;48.112;11.298;2022-11-15T13:50:59;2.83;;;1.47;;
13566;SDS011;6855;48.112;11.298;2022-11-15T13:53:27;1.63;;;1.43;;
13566;SDS011;6855;48.112;11.298;2022-11-15T13:55:55;1.40;;;1.20;;
13566;SDS011;6855;48.112;11.298;2022-11-15T13:58:22;3.60;;;1.20;;
13566;SDS011;6855;48.112;11.298;2022-11-15T14:00:49;2.70;;;1.57;;
13566;SDS011;6855;48.112;11.298;2022-11-15T14:03:26;2.03;;;1.83;;
13566;SDS011;6855;48.112;11.298;2022-11-15T14:06:02;1.93;;;1.47;;
13566;SDS011;6855;48.112;11.298;2022-11-15T14:08:31;2.10;;;1.43;;
13566;SDS011;6855;48.112;11.298;2022-11-15T14:11:05;2.77;;;1.60;;
13566;SDS011;6855;48.112;11.298;2022-11-15T14:13:33;2.73;;;1.27;;
13566;SDS011;6855;48.112;11.298;2022-11-15T14:16:13;1.87;;;1.70;;
13566;SDS011;6855;48.112;11.298;2022-11-15T14:18:43;3.10;;;2.73;;
13566;SDS011;6855;48.112;11.298;2022-11-15T14:21:11;4.10;;;2.63;;
13566;SDS011;6855;48.112;11.298;2022-11-15T14:23:38;4.33;;;2.50;;
13566;SDS011;6855;48.112;11.298;2022-11-15T14:26:05;5.17;;;3.27;;
13566;SDS011;6855;48.112;11.298;2022-11-15T14:28:33;4.40;;;3.47;;
13566;SDS011;6855;48.112;11.298;2022-11-15T14:31:04;6.20;;;3.77;;
13566;SDS011;6855;48.112;11.298;2022-11-15T14:33:34;4.40;;;3.30;;
13566;SDS011;6855;48.112;11.298;2022-11-15T14:36:04;6.00;;;4.17;;
13566;SDS011;6855;48.112;11.298;2022-11-15T14:38:31;6.53;;;4.40;;
13566;SDS011;6855;48.112;11.298;2022-11-15T14:40:59;6.00;;;4.40;;
13566;SDS011;6855;48.112;11.298;2022-11-15T14:43:26;8.70;;;5.33;;
13566;SDS011;6855;48.112;11.298;2022-11-15T14:45:54;16.13;;;4.87;;
13566;SDS011;6855;48.112;11.298;2022-11-15T14:48:21;7.27;;;5.27;;
13566;SDS011;6855;48.112;11.298;2022-11-15T14:50:48;9.03;;;6.53;;
13566;SDS011;6855;48.112;11.298;2022-11-15T14:53:17;9.97;;;5.07;;
13566;SDS011;6855;48.112;11.298;2022-11-15T14:55:44;11.07;;;5.83;;
13566;SDS011;6855;48.112;11.298;2022-11-15T14:58:12;9.80;;;5.87;;
13566;SDS011;6855;48.112;11.298;2022-11-15T15:00:39;9.93;;;5.50;;
13566;SDS011;6855;48.112;11.298;2022-11-15T15:03:08;9.50;;;5.53;;
13566;SDS011;6855;48.112;11.298;2022-11-15T15:05:36;14.60;;;5.50;;
13566;SDS011;6855;48.112;11.298;2022-11-15T15:08:04;7.10;;;4.90;;
13566;SDS011;6855;48.112;11.298;2022-11-15T15:10:33;8.00;;;5.23;;
13566;SDS011;6855;48.112;11.298;2022-11-15T15:13:00;7.80;;;5.57;;
13566;SDS011;6855;48.112;11.298;2022-11-15T15:15:32;9.73;;;5.50;;